createdAt,value
2022-10-31T00:00:10.014Z,6.00
2022-10-31T00:01:09.952Z,4.70
2022-10-31T00:02:10.054Z,5.40
2022-10-31T00:03:09.914Z,7.60
2022-10-31T00:04:09.905Z,9.70
2022-10-31T00:05:09.891Z,7.80
2022-10-31T00:06:09.882Z,8.00
2022-10-31T00:07:09.877Z,6.80
2022-10-31T00:08:09.877Z,7.40
2022-10-31T00:09:09.874Z,5.50
2022-10-31T00:10:09.841Z,6.50
2022-10-31T00:11:09.830Z,5.80
2022-10-31T00:12:09.827Z,6.60
2022-10-31T00:13:10.014Z,6.20
2022-10-31T00:14:09.804Z,5.80
2022-10-31T00:15:09.795Z,8.70
2022-10-31T00:16:09.771Z,7.60
2022-10-31T00:17:09.758Z,8.20
2022-10-31T00:18:09.763Z,7.00
2022-10-31T00:19:09.740Z,9.00
2022-10-31T00:20:09.740Z,12.00
2022-10-31T00:21:09.725Z,7.40
2022-10-31T00:22:09.728Z,10.20
2022-10-31T00:23:09.698Z,10.10
2022-10-31T00:24:09.688Z,10.60
2022-10-31T00:25:09.692Z,13.20
2022-10-31T00:26:09.667Z,10.00
2022-10-31T00:27:09.652Z,13.70
2022-10-31T00:28:09.672Z,10.00
2022-10-31T00:29:09.631Z,15.50
2022-10-31T00:30:09.622Z,13.10
2022-10-31T00:31:09.613Z,13.90
2022-10-31T00:32:09.610Z,8.90
2022-10-31T00:33:09.591Z,6.70
2022-10-31T00:34:09.573Z,7.90
2022-10-31T00:35:09.565Z,8.00
2022-10-31T00:36:09.555Z,6.30
2022-10-31T00:37:09.537Z,7.10
2022-10-31T00:38:09.531Z,8.60
2022-10-31T00:39:09.520Z,6.90
2022-10-31T00:40:09.522Z,5.40
2022-10-31T00:41:09.528Z,4.80
2022-10-31T00:42:09.486Z,4.80
2022-10-31T00:43:09.479Z,9.60
2022-10-31T00:44:09.474Z,7.90
2022-10-31T00:45:09.455Z,7.60
2022-10-31T00:46:09.432Z,4.80
2022-10-31T00:47:09.436Z,5.30
2022-10-31T00:48:09.418Z,4.50
2022-10-31T00:49:09.398Z,7.90
2022-10-31T00:50:09.393Z,7.00
2022-10-31T00:51:09.417Z,5.80
2022-10-31T00:52:09.373Z,4.30
2022-10-31T00:53:09.364Z,5.00
2022-10-31T00:54:09.343Z,8.10
2022-10-31T00:55:09.340Z,5.20
2022-10-31T00:56:09.320Z,5.10
2022-10-31T00:57:09.342Z,5.00
2022-10-31T00:58:09.352Z,5.80
2022-10-31T00:59:09.305Z,6.80
2022-10-31T01:00:09.276Z,5.00
2022-10-31T01:01:09.404Z,6.20
2022-10-31T01:02:09.398Z,5.20
2022-10-31T01:03:09.249Z,6.80
2022-10-31T01:04:09.238Z,6.60
2022-10-31T01:05:09.220Z,8.70
2022-10-31T01:06:09.243Z,6.30
2022-10-31T01:07:09.212Z,6.40
2022-10-31T01:08:09.193Z,8.60
2022-10-31T01:09:09.182Z,6.30
2022-10-31T01:10:09.173Z,8.80
2022-10-31T01:11:09.174Z,6.40
2022-10-31T01:12:09.149Z,5.30
2022-10-31T01:13:09.239Z,5.70
2022-10-31T01:14:09.127Z,6.30
2022-10-31T01:15:09.117Z,8.80
2022-10-31T01:16:09.107Z,7.30
2022-10-31T01:17:09.094Z,6.80
2022-10-31T01:18:09.087Z,7.30
2022-10-31T01:19:09.066Z,5.90
2022-10-31T01:20:09.084Z,11.60
2022-10-31T01:21:09.056Z,4.40
2022-10-31T01:22:09.038Z,8.80
2022-10-31T01:23:09.020Z,5.90
2022-10-31T01:24:09.018Z,6.80
2022-10-31T01:25:09.006Z,8.70
2022-10-31T01:26:09.001Z,6.80
2022-10-31T01:27:08.987Z,6.50
2022-10-31T01:28:08.977Z,8.10
2022-10-31T01:29:09.001Z,5.30
2022-10-31T01:30:08.949Z,7.00
2022-10-31T01:31:08.941Z,5.20
2022-10-31T01:32:08.938Z,4.30
2022-10-31T01:33:08.911Z,4.90
2022-10-31T01:34:08.897Z,7.30
2022-10-31T01:35:08.898Z,8.20
2022-10-31T01:36:08.877Z,5.70
2022-10-31T01:37:08.892Z,8.30
2022-10-31T01:38:08.868Z,6.50
2022-10-31T01:39:08.888Z,5.20
2022-10-31T01:40:08.845Z,6.70
2022-10-31T01:41:08.828Z,3.10
2022-10-31T01:42:08.828Z,6.40
2022-10-31T01:43:08.836Z,8.80
2022-10-31T01:44:08.798Z,9.80
2022-10-31T01:45:08.816Z,7.70
2022-10-31T01:46:08.766Z,8.10
2022-10-31T01:47:08.758Z,5.90
2022-10-31T01:48:08.765Z,7.80
2022-10-31T01:49:08.760Z,8.90
2022-10-31T01:50:08.721Z,6.10
2022-10-31T01:51:08.721Z,6.50
2022-10-31T01:52:08.698Z,8.00
2022-10-31T01:53:08.686Z,6.10
2022-10-31T01:54:08.686Z,5.10
2022-10-31T01:55:08.675Z,5.40
2022-10-31T01:56:08.663Z,7.00
2022-10-31T01:57:08.668Z,5.30
2022-10-31T01:58:08.734Z,7.30
2022-10-31T01:59:08.634Z,6.60
2022-10-31T02:00:08.624Z,8.20
2022-10-31T02:01:08.723Z,7.50
2022-10-31T02:02:08.850Z,4.50
2022-10-31T02:03:08.581Z,7.30
2022-10-31T02:04:08.567Z,7.80
2022-10-31T02:05:08.578Z,5.10
2022-10-31T02:06:08.552Z,9.50
2022-10-31T02:07:08.545Z,5.10
2022-10-31T02:08:08.532Z,7.30
2022-10-31T02:09:08.515Z,6.30
2022-10-31T02:10:08.509Z,7.10
2022-10-31T02:11:08.520Z,3.40
2022-10-31T02:12:08.487Z,4.10
2022-10-31T02:13:08.478Z,6.40
2022-10-31T02:14:08.486Z,5.50
2022-10-31T02:15:08.449Z,4.90
2022-10-31T02:16:08.434Z,4.90
2022-10-31T02:17:08.468Z,9.40
2022-10-31T02:18:08.417Z,5.50
2022-10-31T02:19:08.411Z,6.40
2022-10-31T02:20:08.390Z,6.00
2022-10-31T02:21:08.386Z,5.10
2022-10-31T02:22:08.374Z,10.30
2022-10-31T02:23:08.389Z,6.20
2022-10-31T02:24:08.353Z,8.20
2022-10-31T02:25:08.349Z,5.40
2022-10-31T02:26:08.324Z,5.50
2022-10-31T02:27:08.321Z,5.50
2022-10-31T02:28:08.325Z,8.70
2022-10-31T02:29:08.303Z,5.10
2022-10-31T02:30:08.285Z,5.10
2022-10-31T02:31:08.286Z,8.00
2022-10-31T02:32:08.263Z,6.40
2022-10-31T02:33:08.290Z,6.20
2022-10-31T02:34:08.243Z,5.50
2022-10-31T02:35:08.232Z,6.40
2022-10-31T02:36:08.220Z,7.70
2022-10-31T02:37:08.201Z,4.10
2022-10-31T02:38:08.192Z,5.50
2022-10-31T02:39:08.190Z,8.70
2022-10-31T02:40:08.185Z,4.60
2022-10-31T02:41:08.163Z,6.10
2022-10-31T02:42:08.147Z,5.80
2022-10-31T02:43:08.195Z,5.80
2022-10-31T02:44:08.147Z,5.50
2022-10-31T02:45:08.122Z,10.60
2022-10-31T02:46:08.114Z,5.70
2022-10-31T02:47:08.097Z,5.00
2022-10-31T02:48:08.080Z,7.90
2022-10-31T02:49:08.093Z,5.80
2022-10-31T02:50:08.076Z,8.00
2022-10-31T02:51:08.073Z,4.60
2022-10-31T02:52:08.054Z,6.90
2022-10-31T02:53:08.034Z,9.80
2022-10-31T02:54:08.023Z,9.60
2022-10-31T02:55:08.014Z,4.50
2022-10-31T02:56:07.999Z,6.90
2022-10-31T02:57:08.001Z,6.90
2022-10-31T02:58:08.052Z,9.40
2022-10-31T02:59:07.969Z,9.20
2022-10-31T03:00:07.973Z,8.40
2022-10-31T03:01:08.132Z,7.50
2022-10-31T03:02:08.113Z,6.30
2022-10-31T03:03:07.915Z,5.20
2022-10-31T03:04:07.917Z,13.70
2022-10-31T03:05:07.928Z,8.10
2022-10-31T03:06:07.903Z,6.40
2022-10-31T03:07:07.878Z,4.90
2022-10-31T03:08:07.858Z,6.10
2022-10-31T03:09:07.862Z,10.80
2022-10-31T03:10:07.848Z,5.00
2022-10-31T03:11:07.857Z,8.30
2022-10-31T03:12:07.828Z,5.40
2022-10-31T03:13:07.812Z,8.00
2022-10-31T03:14:07.799Z,6.40
2022-10-31T03:15:07.788Z,6.10
2022-10-31T03:16:07.774Z,6.70
2022-10-31T03:17:07.764Z,8.10
2022-10-31T03:18:07.775Z,13.10
2022-10-31T03:19:07.738Z,6.90
2022-10-31T03:20:07.752Z,6.70
2022-10-31T03:21:07.749Z,6.40
2022-10-31T03:22:07.724Z,6.70
2022-10-31T03:23:07.710Z,5.30
2022-10-31T03:24:07.685Z,6.10
2022-10-31T03:25:07.681Z,9.40
2022-10-31T03:26:07.679Z,5.80
2022-10-31T03:27:07.681Z,8.40
2022-10-31T03:28:07.763Z,4.80
2022-10-31T03:29:07.633Z,7.50
2022-10-31T03:30:07.639Z,7.00
2022-10-31T03:31:07.710Z,8.90
2022-10-31T03:32:07.617Z,8.20
2022-10-31T03:33:07.600Z,5.00
2022-10-31T03:34:07.580Z,6.10
2022-10-31T03:35:07.558Z,9.50
2022-10-31T03:36:07.558Z,5.80
2022-10-31T03:37:07.569Z,8.40
2022-10-31T03:38:08.048Z,8.40
2022-10-31T03:39:07.524Z,7.00
2022-10-31T03:40:07.561Z,7.30
2022-10-31T03:41:07.504Z,6.20
2022-10-31T03:42:07.496Z,8.80
2022-10-31T03:43:07.574Z,7.80
2022-10-31T03:44:07.473Z,9.20
2022-10-31T03:45:07.449Z,7.60
2022-10-31T03:46:07.454Z,6.40
2022-10-31T03:47:07.428Z,5.90
2022-10-31T03:48:07.418Z,5.90
2022-10-31T03:49:07.423Z,6.70
2022-10-31T03:50:07.402Z,10.80
2022-10-31T03:51:07.389Z,6.20
2022-10-31T03:52:07.391Z,5.40
2022-10-31T03:53:07.413Z,5.30
2022-10-31T03:54:07.360Z,7.50
2022-10-31T03:55:07.340Z,8.50
2022-10-31T03:56:07.337Z,9.40
2022-10-31T03:57:07.328Z,7.10
2022-10-31T03:58:07.414Z,7.90
2022-10-31T03:59:07.296Z,6.00
2022-10-31T04:00:07.283Z,8.20
2022-10-31T04:01:07.380Z,6.70
2022-10-31T04:02:07.428Z,6.90
2022-10-31T04:03:07.278Z,6.20
2022-10-31T04:04:07.252Z,7.60
2022-10-31T04:05:07.230Z,7.50
2022-10-31T04:06:07.229Z,8.80
2022-10-31T04:07:07.211Z,6.70
2022-10-31T04:08:07.202Z,7.20
2022-10-31T04:09:07.216Z,6.20
2022-10-31T04:10:07.173Z,6.00
2022-10-31T04:11:07.167Z,5.20
2022-10-31T04:12:07.173Z,8.70
2022-10-31T04:13:07.232Z,9.20
2022-10-31T04:14:07.132Z,7.70
2022-10-31T04:15:07.132Z,7.90
2022-10-31T04:16:10.072Z,8.70
2022-10-31T04:17:08.119Z,4.80
2022-10-31T04:18:07.092Z,6.50
2022-10-31T04:19:07.114Z,9.40
2022-10-31T04:20:07.066Z,6.50
2022-10-31T04:21:07.059Z,6.50
2022-10-31T04:22:07.051Z,6.60
2022-10-31T04:23:08.935Z,6.00
2022-10-31T04:24:08.027Z,7.20
2022-10-31T04:25:07.040Z,6.30
2022-10-31T04:26:07.006Z,9.20
2022-10-31T04:27:06.996Z,11.20
2022-10-31T04:28:07.040Z,9.50
2022-10-31T04:29:06.975Z,7.80
2022-10-31T04:30:06.967Z,7.60
2022-10-31T04:31:06.942Z,9.00
2022-10-31T04:32:06.933Z,6.80
2022-10-31T04:33:06.936Z,9.60
2022-10-31T04:34:06.916Z,6.50
2022-10-31T04:35:06.924Z,7.60
2022-10-31T04:36:06.893Z,5.50
2022-10-31T04:37:06.885Z,9.80
2022-10-31T04:38:06.879Z,5.70
2022-10-31T04:39:06.864Z,6.30
2022-10-31T04:40:06.842Z,8.10
2022-10-31T04:41:06.866Z,5.50
2022-10-31T04:42:06.830Z,5.60
2022-10-31T04:43:06.904Z,11.50
2022-10-31T04:44:06.805Z,8.10
2022-10-31T04:45:06.791Z,7.70
2022-10-31T04:46:06.784Z,4.70
2022-10-31T04:47:06.774Z,6.70
2022-10-31T04:48:06.755Z,7.20
2022-10-31T04:49:06.775Z,7.30
2022-10-31T04:50:06.739Z,6.20
2022-10-31T04:51:06.737Z,5.70
2022-10-31T04:52:06.723Z,8.10
2022-10-31T04:53:06.776Z,9.60
2022-10-31T04:54:06.688Z,7.10
2022-10-31T04:55:06.686Z,8.50
2022-10-31T04:56:06.677Z,6.70
2022-10-31T04:57:06.704Z,5.30
2022-10-31T04:58:06.846Z,6.50
2022-10-31T04:59:06.633Z,5.30
2022-10-31T05:00:06.630Z,7.30
2022-10-31T05:01:06.769Z,5.40
2022-10-31T05:02:06.705Z,6.90
2022-10-31T05:03:06.607Z,7.00
2022-10-31T05:04:06.579Z,6.20
2022-10-31T05:05:06.566Z,7.90
2022-10-31T05:06:06.561Z,10.40
2022-10-31T05:07:06.564Z,11.90
2022-10-31T05:08:06.547Z,5.10
2022-10-31T05:09:06.545Z,7.70
2022-10-31T05:10:06.513Z,5.80
2022-10-31T05:11:06.508Z,7.30
2022-10-31T05:12:06.489Z,5.10
2022-10-31T05:13:06.712Z,7.60
2022-10-31T05:14:06.475Z,7.20
2022-10-31T05:15:06.463Z,5.70
2022-10-31T05:16:06.445Z,6.20
2022-10-31T05:17:06.440Z,5.00
2022-10-31T05:18:06.427Z,6.00
2022-10-31T05:19:06.419Z,5.70
2022-10-31T05:20:06.412Z,3.80
2022-10-31T05:21:06.398Z,7.40
2022-10-31T05:22:06.386Z,6.00
2022-10-31T05:23:06.373Z,7.20
2022-10-31T05:24:06.381Z,8.10
2022-10-31T05:25:06.344Z,8.10
2022-10-31T05:26:06.340Z,10.80
2022-10-31T05:27:06.343Z,10.00
2022-10-31T05:28:06.319Z,5.80
2022-10-31T05:29:06.335Z,7.00
2022-10-31T05:30:06.319Z,7.10
2022-10-31T05:31:06.290Z,8.00
2022-10-31T05:32:06.282Z,6.70
2022-10-31T05:33:06.279Z,4.30
2022-10-31T05:34:06.250Z,8.30
2022-10-31T05:35:06.249Z,5.30
2022-10-31T05:36:06.233Z,7.00
2022-10-31T05:37:06.222Z,8.70
2022-10-31T05:38:06.226Z,8.10
2022-10-31T05:39:06.193Z,5.20
2022-10-31T05:40:08.303Z,4.60
2022-10-31T05:41:06.177Z,8.70
2022-10-31T05:42:06.170Z,5.40
2022-10-31T05:43:06.163Z,5.40
2022-10-31T05:44:06.144Z,5.50
2022-10-31T05:45:06.156Z,5.80
2022-10-31T05:46:06.122Z,5.20
2022-10-31T05:47:06.122Z,6.60
2022-10-31T05:48:06.091Z,13.50
2022-10-31T05:49:06.090Z,7.60
2022-10-31T05:50:06.089Z,6.60
2022-10-31T05:51:06.060Z,6.80
2022-10-31T05:52:06.057Z,5.00
2022-10-31T05:53:06.044Z,7.70
2022-10-31T05:54:06.028Z,6.50
2022-10-31T05:55:06.046Z,5.00
2022-10-31T05:56:06.016Z,5.30
2022-10-31T05:57:06.013Z,6.40
2022-10-31T05:58:06.001Z,7.80
2022-10-31T05:59:05.970Z,7.60
2022-10-31T06:00:05.969Z,7.60
2022-10-31T06:01:06.069Z,7.10
2022-10-31T06:02:05.959Z,7.20
2022-10-31T06:03:06.202Z,6.70
2022-10-31T06:04:05.940Z,10.20
2022-10-31T06:05:06.038Z,6.50
2022-10-31T06:06:05.918Z,7.00
2022-10-31T06:07:05.883Z,7.80
2022-10-31T06:08:05.884Z,5.10
2022-10-31T06:09:05.882Z,4.80
2022-10-31T06:10:05.891Z,12.20
2022-10-31T06:11:05.849Z,10.10
2022-10-31T06:12:05.855Z,7.60
2022-10-31T06:13:05.821Z,9.50
2022-10-31T06:14:05.832Z,6.70
2022-10-31T06:15:05.859Z,5.90
2022-10-31T06:16:05.847Z,9.60
2022-10-31T06:17:05.835Z,5.50
2022-10-31T06:18:05.788Z,10.80
2022-10-31T06:19:05.796Z,7.40
2022-10-31T06:20:05.772Z,6.20
2022-10-31T06:21:05.768Z,8.20
2022-10-31T06:22:05.733Z,8.30
2022-10-31T06:23:05.953Z,7.20
2022-10-31T06:24:05.736Z,5.60
2022-10-31T06:25:05.730Z,9.80
2022-10-31T06:26:05.687Z,9.30
2022-10-31T06:27:05.678Z,6.80
2022-10-31T06:28:05.677Z,8.00
2022-10-31T06:29:05.661Z,7.50
2022-10-31T06:30:05.636Z,10.40
2022-10-31T06:31:05.620Z,7.30
2022-10-31T06:32:05.671Z,6.80
2022-10-31T06:33:05.631Z,7.10
2022-10-31T06:34:05.604Z,7.00
2022-10-31T06:35:05.591Z,5.60
2022-10-31T06:36:05.570Z,7.90
2022-10-31T06:37:05.565Z,10.20
2022-10-31T06:38:05.899Z,6.10
2022-10-31T06:39:05.556Z,6.30
2022-10-31T06:40:05.536Z,6.30
2022-10-31T06:41:05.513Z,9.10
2022-10-31T06:42:05.497Z,6.10
2022-10-31T06:43:05.516Z,7.00
2022-10-31T06:44:08.137Z,11.90
2022-10-31T06:45:05.480Z,6.40
2022-10-31T06:46:05.477Z,11.30
2022-10-31T06:47:05.443Z,9.80
2022-10-31T06:48:17.327Z,9.80
2022-10-31T06:49:06.483Z,7.20
2022-10-31T06:50:05.410Z,9.10
2022-10-31T06:51:05.479Z,6.90
2022-10-31T06:52:05.424Z,9.80
2022-10-31T06:53:05.441Z,6.80
2022-10-31T06:54:05.383Z,8.10
2022-10-31T06:55:05.361Z,8.80
2022-10-31T06:56:05.412Z,7.20
2022-10-31T06:57:05.379Z,7.30
2022-10-31T06:58:05.931Z,9.00
2022-10-31T06:59:05.321Z,9.60
2022-10-31T07:00:05.341Z,7.00
2022-10-31T07:01:05.498Z,6.90
2022-10-31T07:02:05.482Z,8.20
2022-10-31T07:03:05.283Z,10.80
2022-10-31T07:04:05.267Z,7.10
2022-10-31T07:05:05.268Z,7.80
2022-10-31T07:06:05.280Z,11.60
2022-10-31T07:07:05.251Z,7.20
2022-10-31T07:08:05.246Z,8.60
2022-10-31T07:09:05.218Z,8.20
2022-10-31T07:10:05.269Z,9.40
2022-10-31T07:11:05.218Z,11.60
2022-10-31T07:12:05.198Z,12.30
2022-10-31T07:13:05.175Z,9.50
2022-10-31T07:14:05.150Z,9.90
2022-10-31T07:15:05.130Z,8.20
2022-10-31T07:16:05.168Z,8.00
2022-10-31T07:17:05.127Z,7.80
2022-10-31T07:18:05.135Z,9.20
2022-10-31T07:19:05.090Z,9.30
2022-10-31T07:20:05.137Z,11.10
2022-10-31T07:21:05.129Z,8.70
2022-10-31T07:22:05.086Z,9.10
2022-10-31T07:23:05.655Z,10.60
2022-10-31T07:24:05.040Z,8.60
2022-10-31T07:25:05.086Z,10.80
2022-10-31T07:26:05.056Z,9.90
2022-10-31T07:27:05.019Z,12.30
2022-10-31T07:28:04.997Z,13.70
2022-10-31T07:29:04.975Z,7.40
2022-10-31T07:30:04.976Z,13.20
2022-10-31T07:31:04.978Z,11.90
2022-10-31T07:32:04.961Z,10.80
2022-10-31T07:33:04.950Z,8.40
2022-10-31T07:34:04.932Z,10.10
2022-10-31T07:35:04.951Z,10.90
2022-10-31T07:36:04.925Z,13.60
2022-10-31T07:37:04.921Z,10.50
2022-10-31T07:38:04.892Z,13.60
2022-10-31T07:39:04.870Z,12.10
2022-10-31T07:40:04.892Z,12.60
2022-10-31T07:41:04.865Z,12.60
2022-10-31T07:42:04.865Z,11.50
2022-10-31T07:43:06.735Z,15.40
2022-10-31T07:44:05.817Z,14.80
2022-10-31T07:45:04.854Z,13.90
2022-10-31T07:46:05.631Z,11.30
2022-10-31T07:47:04.787Z,12.30
2022-10-31T07:48:04.769Z,14.60
2022-10-31T07:49:04.804Z,13.40
2022-10-31T07:50:04.769Z,16.70
2022-10-31T07:51:04.759Z,15.40
2022-10-31T07:52:04.739Z,12.50
2022-10-31T07:53:04.743Z,14.20
2022-10-31T07:54:04.760Z,14.80
2022-10-31T07:55:04.697Z,12.50
2022-10-31T07:56:04.681Z,14.80
2022-10-31T07:57:04.673Z,12.50
2022-10-31T07:58:04.657Z,15.60
2022-10-31T07:59:04.664Z,12.00
2022-10-31T08:00:04.656Z,12.10
2022-10-31T08:01:04.860Z,13.60
2022-10-31T08:02:04.607Z,12.60
2022-10-31T08:03:04.716Z,14.10
2022-10-31T08:04:04.635Z,14.90
2022-10-31T08:05:04.591Z,11.80
2022-10-31T08:06:04.586Z,12.70
2022-10-31T08:07:04.573Z,15.30
2022-10-31T08:08:04.690Z,13.40
2022-10-31T08:09:04.559Z,12.60
2022-10-31T08:10:04.541Z,10.80
2022-10-31T08:11:04.521Z,15.80
2022-10-31T08:12:04.547Z,11.70
2022-10-31T08:13:04.484Z,11.10
2022-10-31T08:14:04.487Z,12.20
2022-10-31T08:15:04.483Z,13.20
2022-10-31T08:16:04.535Z,14.00
2022-10-31T08:17:04.446Z,11.70
2022-10-31T08:18:04.512Z,12.10
2022-10-31T08:19:04.417Z,11.30
2022-10-31T08:20:04.418Z,11.50
2022-10-31T08:21:04.462Z,12.80
2022-10-31T08:22:04.387Z,11.50
2022-10-31T08:23:04.446Z,17.70
2022-10-31T08:24:04.387Z,13.20
2022-10-31T08:25:04.381Z,12.30
2022-10-31T08:26:04.356Z,11.60
2022-10-31T08:27:04.414Z,10.90
2022-10-31T08:28:04.396Z,13.30
2022-10-31T08:29:04.331Z,17.40
2022-10-31T08:30:04.404Z,15.50
2022-10-31T08:31:04.285Z,12.00
2022-10-31T08:32:04.268Z,12.30
2022-10-31T08:33:05.206Z,10.00
2022-10-31T08:34:04.258Z,12.60
2022-10-31T08:35:04.253Z,12.20
2022-10-31T08:36:04.232Z,9.60
2022-10-31T08:37:04.237Z,11.30
2022-10-31T08:38:04.611Z,14.20
2022-10-31T08:39:04.228Z,14.40
2022-10-31T08:40:04.181Z,10.40
2022-10-31T08:41:04.212Z,13.00
2022-10-31T08:42:04.185Z,14.90
2022-10-31T08:43:04.180Z,13.00
2022-10-31T08:44:04.143Z,10.40
2022-10-31T08:45:04.187Z,9.90
2022-10-31T08:46:04.113Z,12.80
2022-10-31T08:47:04.120Z,14.50
2022-10-31T08:48:04.565Z,11.80
2022-10-31T08:49:04.091Z,11.80
2022-10-31T08:50:04.079Z,12.40
2022-10-31T08:51:04.136Z,14.90
2022-10-31T08:52:04.071Z,12.40
2022-10-31T08:53:05.967Z,11.90
2022-10-31T08:54:04.126Z,10.30
2022-10-31T08:55:04.047Z,10.70
2022-10-31T08:56:04.027Z,12.10
2022-10-31T08:57:04.017Z,14.00
2022-10-31T08:58:04.333Z,12.50
2022-10-31T08:59:03.964Z,12.20
2022-10-31T09:00:03.995Z,12.60
2022-10-31T09:01:04.095Z,11.10
2022-10-31T09:02:03.965Z,15.10
2022-10-31T09:03:03.946Z,13.50
2022-10-31T09:04:03.929Z,12.50
2022-10-31T09:05:03.900Z,10.70
2022-10-31T09:06:04.119Z,14.00
2022-10-31T09:07:21.046Z,12.30
2022-10-31T09:08:05.154Z,12.00
2022-10-31T09:09:03.864Z,12.80
2022-10-31T09:10:03.892Z,12.10
2022-10-31T09:11:03.893Z,9.60
2022-10-31T09:12:03.855Z,15.80
2022-10-31T09:13:03.865Z,13.60
2022-10-31T09:14:03.817Z,12.20
2022-10-31T09:15:03.783Z,13.30
2022-10-31T09:16:03.819Z,13.20
2022-10-31T09:17:03.802Z,14.20
2022-10-31T09:18:04.178Z,14.10
2022-10-31T09:19:07.448Z,12.10
2022-10-31T09:20:04.744Z,16.00
2022-10-31T09:21:03.759Z,16.20
2022-10-31T09:22:03.725Z,12.90
2022-10-31T09:23:03.706Z,15.90
2022-10-31T09:24:03.739Z,14.80
2022-10-31T09:25:03.831Z,12.90
2022-10-31T09:26:03.804Z,13.10
2022-10-31T09:27:03.674Z,13.70
2022-10-31T09:28:04.282Z,13.20
2022-10-31T09:29:03.658Z,12.40
2022-10-31T09:30:03.639Z,14.60
2022-10-31T09:31:03.646Z,18.50
2022-10-31T09:32:03.613Z,12.30
2022-10-31T09:33:03.608Z,13.10
2022-10-31T09:34:03.602Z,15.70
2022-10-31T09:35:03.708Z,13.40
2022-10-31T09:36:03.588Z,17.10
2022-10-31T09:37:03.557Z,12.20
2022-10-31T09:38:03.937Z,14.20
2022-10-31T09:39:03.548Z,12.90
2022-10-31T09:40:03.520Z,9.60
2022-10-31T09:41:03.530Z,13.60
2022-10-31T09:42:03.515Z,13.60
2022-10-31T09:43:03.497Z,11.60
2022-10-31T09:44:03.515Z,15.00
2022-10-31T09:45:03.499Z,11.80
2022-10-31T09:46:03.467Z,13.00
2022-10-31T09:47:03.458Z,15.20
2022-10-31T09:48:03.709Z,11.40
2022-10-31T09:49:03.436Z,13.90
2022-10-31T09:50:03.496Z,16.80
2022-10-31T09:51:03.407Z,10.70
2022-10-31T09:52:03.524Z,12.20
2022-10-31T09:53:03.713Z,10.80
2022-10-31T09:54:03.362Z,12.40
2022-10-31T09:55:03.374Z,13.00
2022-10-31T09:56:03.346Z,9.80
2022-10-31T09:57:03.338Z,12.60
2022-10-31T09:58:03.302Z,12.60
2022-10-31T09:59:03.305Z,12.60
2022-10-31T10:00:03.317Z,11.00
2022-10-31T10:01:03.395Z,16.10
2022-10-31T10:02:03.372Z,14.60
2022-10-31T10:03:03.641Z,10.60
2022-10-31T10:04:03.286Z,9.20
2022-10-31T10:05:03.226Z,11.70
2022-10-31T10:06:03.233Z,17.10
2022-10-31T10:07:03.244Z,12.30
2022-10-31T10:08:03.201Z,11.70
2022-10-31T10:09:03.214Z,11.50
2022-10-31T10:10:03.204Z,12.00
2022-10-31T10:11:03.166Z,9.70
2022-10-31T10:12:03.173Z,13.50
2022-10-31T10:13:06.487Z,9.40
2022-10-31T10:14:04.158Z,11.50
2022-10-31T10:15:03.132Z,10.00
2022-10-31T10:16:03.133Z,11.40
2022-10-31T10:17:03.159Z,10.60
2022-10-31T10:18:03.125Z,18.40
2022-10-31T10:19:03.623Z,10.00
2022-10-31T10:20:03.077Z,11.90
2022-10-31T10:21:03.096Z,13.10
2022-10-31T10:22:03.072Z,11.40
2022-10-31T10:23:03.392Z,10.40
2022-10-31T10:24:03.022Z,12.30
2022-10-31T10:25:03.071Z,9.90
2022-10-31T10:26:07.365Z,11.80
2022-10-31T10:27:04.076Z,11.60
2022-10-31T10:28:03.393Z,11.00
2022-10-31T10:29:02.971Z,9.50
2022-10-31T10:30:02.957Z,10.00
2022-10-31T10:31:02.970Z,10.40
2022-10-31T10:32:02.942Z,7.60
2022-10-31T10:33:03.006Z,10.50
2022-10-31T10:34:02.929Z,7.50
2022-10-31T10:35:02.906Z,9.70
2022-10-31T10:36:02.897Z,8.40
2022-10-31T10:37:02.892Z,9.80
2022-10-31T10:38:03.061Z,9.00
2022-10-31T10:39:02.856Z,9.70
2022-10-31T10:40:02.873Z,9.40
2022-10-31T10:41:03.125Z,8.70
2022-10-31T10:42:02.881Z,11.80
2022-10-31T10:43:02.809Z,9.20
2022-10-31T10:44:02.825Z,9.10
2022-10-31T10:45:02.817Z,9.90
2022-10-31T10:46:06.438Z,7.20
2022-10-31T10:47:03.778Z,10.40
2022-10-31T10:48:03.132Z,5.70
2022-10-31T10:49:02.782Z,11.40
2022-10-31T10:50:02.787Z,6.60
2022-10-31T10:51:02.733Z,6.40
2022-10-31T10:52:19.374Z,7.20
2022-10-31T10:53:03.695Z,6.20
2022-10-31T10:54:06.589Z,6.70
2022-10-31T10:55:03.689Z,8.50
2022-10-31T10:56:02.671Z,7.60
2022-10-31T10:57:02.656Z,8.40
2022-10-31T10:58:03.094Z,7.00
2022-10-31T10:59:02.659Z,7.80
2022-10-31T11:00:02.663Z,5.90
2022-10-31T11:01:02.876Z,8.50
2022-10-31T11:02:02.611Z,9.00
2022-10-31T11:03:03.042Z,9.30
2022-10-31T11:04:02.606Z,7.10
2022-10-31T11:05:02.610Z,6.60
2022-10-31T11:06:02.641Z,7.60
2022-10-31T11:07:02.545Z,7.50
2022-10-31T11:08:02.551Z,8.90
2022-10-31T11:09:02.540Z,7.90
2022-10-31T11:10:02.615Z,9.30
2022-10-31T11:11:02.507Z,10.30
2022-10-31T11:12:02.492Z,7.20
2022-10-31T11:13:03.076Z,9.50
2022-10-31T11:14:02.489Z,8.60
2022-10-31T11:15:02.520Z,6.50
2022-10-31T11:16:02.470Z,5.90
2022-10-31T11:17:02.431Z,6.60
2022-10-31T11:18:02.440Z,5.50
2022-10-31T11:19:02.428Z,8.20
2022-10-31T11:20:02.420Z,7.60
2022-10-31T11:21:02.417Z,5.80
2022-10-31T11:22:02.453Z,6.70
2022-10-31T11:23:02.384Z,6.00
2022-10-31T11:24:02.367Z,7.30
2022-10-31T11:25:02.389Z,7.30
2022-10-31T11:26:02.348Z,7.60
2022-10-31T11:27:02.315Z,8.20
2022-10-31T11:28:02.324Z,6.70
2022-10-31T11:29:02.363Z,6.90
2022-10-31T11:30:02.289Z,6.90
2022-10-31T11:31:02.285Z,8.30
2022-10-31T11:32:02.504Z,6.10
2022-10-31T11:33:02.770Z,7.30
2022-10-31T11:34:02.244Z,6.10
2022-10-31T11:35:02.286Z,6.10
2022-10-31T11:36:02.226Z,6.10
2022-10-31T11:37:02.264Z,7.00
2022-10-31T11:38:02.818Z,5.70
2022-10-31T11:39:02.207Z,6.80
2022-10-31T11:40:02.175Z,6.60
2022-10-31T11:41:02.179Z,8.50
2022-10-31T11:42:07.684Z,6.30
2022-10-31T11:43:03.170Z,6.30
2022-10-31T11:44:02.156Z,4.00
2022-10-31T11:45:02.115Z,7.00
2022-10-31T11:46:02.104Z,5.70
2022-10-31T11:47:02.124Z,6.70
2022-10-31T11:48:02.736Z,5.10
2022-10-31T11:49:02.221Z,3.50
2022-10-31T11:50:02.074Z,5.70
2022-10-31T11:51:02.055Z,5.70
2022-10-31T11:52:02.063Z,5.10
2022-10-31T11:53:02.132Z,5.10
2022-10-31T11:54:03.207Z,7.20
2022-10-31T11:55:02.015Z,3.60
2022-10-31T11:56:01.994Z,4.50
2022-10-31T11:57:02.007Z,6.10
2022-10-31T11:58:02.293Z,3.90
2022-10-31T11:59:01.967Z,8.90
2022-10-31T12:00:01.974Z,3.90
2022-10-31T12:01:01.988Z,4.30
2022-10-31T12:02:02.142Z,6.40
2022-10-31T12:03:02.407Z,5.60
2022-10-31T12:04:01.906Z,4.50
2022-10-31T12:05:01.961Z,4.10
2022-10-31T12:06:01.935Z,7.90
2022-10-31T12:07:01.888Z,6.10
2022-10-31T12:08:04.440Z,4.40
2022-10-31T12:09:01.895Z,5.20
2022-10-31T12:10:01.857Z,5.40
2022-10-31T12:11:01.845Z,8.30
2022-10-31T12:12:01.842Z,5.00
2022-10-31T12:13:02.319Z,5.60
2022-10-31T12:14:04.123Z,5.70
2022-10-31T12:15:01.821Z,6.10
2022-10-31T12:16:01.827Z,7.30
2022-10-31T12:17:01.802Z,8.40
2022-10-31T12:18:01.808Z,5.90
2022-10-31T12:19:01.762Z,5.50
2022-10-31T12:20:01.889Z,3.60
2022-10-31T12:21:01.730Z,5.70
2022-10-31T12:22:01.711Z,5.80
2022-10-31T12:23:02.041Z,5.50
2022-10-31T12:24:01.732Z,5.60
2022-10-31T12:25:01.701Z,4.00
2022-10-31T12:26:01.672Z,7.50
2022-10-31T12:27:01.651Z,4.00
2022-10-31T12:28:01.708Z,3.40
2022-10-31T12:29:01.667Z,5.60
2022-10-31T12:30:01.689Z,6.50
2022-10-31T12:31:01.629Z,5.70
2022-10-31T12:32:01.641Z,4.70
2022-10-31T12:33:01.925Z,3.50
2022-10-31T12:34:01.616Z,5.10
2022-10-31T12:35:01.589Z,7.10
2022-10-31T12:36:01.567Z,3.40
2022-10-31T12:37:01.558Z,8.50
2022-10-31T12:38:02.031Z,5.40
2022-10-31T12:39:01.522Z,6.90
2022-10-31T12:40:01.547Z,4.60
2022-10-31T12:41:01.549Z,3.40
2022-10-31T12:42:01.489Z,5.00
2022-10-31T12:43:01.914Z,4.90
2022-10-31T12:44:01.486Z,5.60
2022-10-31T12:45:01.463Z,4.50
2022-10-31T12:46:01.482Z,7.80
2022-10-31T12:47:01.462Z,4.50
2022-10-31T12:48:01.473Z,6.00
2022-10-31T12:49:01.439Z,7.70
2022-10-31T12:50:01.418Z,4.60
2022-10-31T12:51:01.396Z,4.90
2022-10-31T12:52:01.498Z,6.90
2022-10-31T12:53:01.702Z,4.90
2022-10-31T12:54:01.380Z,8.00
2022-10-31T12:55:01.381Z,5.00
2022-10-31T12:56:01.345Z,5.20
2022-10-31T12:57:01.361Z,3.30
2022-10-31T12:58:01.732Z,4.10
2022-10-31T12:59:01.335Z,4.00
2022-10-31T13:00:01.304Z,5.40
2022-10-31T13:01:01.364Z,6.90
2022-10-31T13:02:01.392Z,7.30
2022-10-31T13:03:01.284Z,4.30
2022-10-31T13:04:01.254Z,4.30
2022-10-31T13:05:01.242Z,4.40
2022-10-31T13:06:01.228Z,6.50
2022-10-31T13:07:01.257Z,4.00
2022-10-31T13:08:01.568Z,3.50
2022-10-31T13:09:01.211Z,5.50
2022-10-31T13:10:01.193Z,4.00
2022-10-31T13:12:01.216Z,7.30